sensor_id;sensor_type;location;lat;lon;timestamp;pressure;altitude;pressure_sealevel;temperature;humidity
49947;BME280;35839;48.662;13.300;2023-04-10T05:04:19;98137.91;;;4.06;100.00
49947;BME280;35839;48.662;13.300;2023-04-10T05:06:45;98141.41;;;4.19;100.00
49947;BME280;35839;48.662;13.300;2023-04-10T05:09:10;98142.06;;;4.09;100.00
49947;BME280;35839;48.662;13.300;2023-04-10T05:11:36;98141.59;;;4.16;100.00
49947;BME280;35839;48.662;13.300;2023-04-10T05:14:01;98130.13;;;4.35;100.00
49947;BME280;35839;48.662;13.300;2023-04-10T05:16:26;98133.56;;;4.35;100.00
49947;BME280;35839;48.662;13.300;2023-04-10T05:18:52;98129.66;;;4.28;100.00
49947;BME280;35839;48.662;13.300;2023-04-10T05:21:17;98136.59;;;4.13;100.00
49947;BME280;35839;48.662;13.300;2023-04-10T05:23:42;98139.75;;;4.04;100.00
49947;BME280;35839;48.662;13.300;2023-04-10T05:26:07;98145.28;;;3.98;100.00
49947;BME280;35839;48.662;13.300;2023-04-10T05:28:33;98145.75;;;4.05;100.00
49947;BME280;35839;48.662;13.300;2023-04-10T05:30:58;98146.94;;;3.85;100.00
49947;BME280;35839;48.662;13.300;2023-04-10T05:33:23;98153.53;;;4.19;100.00
49947;BME280;35839;48.662;13.300;2023-04-10T05:35:49;98154.94;;;4.10;100.00
49947;BME280;35839;48.662;13.300;2023-04-10T05:38:14;98153.75;;;4.44;100.00
49947;BME280;35839;48.662;13.300;2023-04-10T05:40:43;98160.47;;;4.04;100.00
49947;BME280;35839;48.662;13.300;2023-04-10T05:43:09;98163.00;;;4.34;100.00
49947;BME280;35839;48.662;13.300;2023-04-10T05:45:35;98163.56;;;4.39;100.00
49947;BME280;35839;48.662;13.300;2023-04-10T05:48:00;98154.56;;;4.45;100.00
49947;BME280;35839;48.662;13.300;2023-04-10T05:50:25;98156.03;;;4.63;100.00
49947;BME280;35839;48.662;13.300;2023-04-10T05:52:50;98157.91;;;4.76;100.00
49947;BME280;35839;48.662;13.300;2023-04-10T05:55:16;98162.25;;;4.61;100.00
49947;BME280;35839;48.662;13.300;2023-04-10T05:57:41;98165.50;;;4.64;100.00
49947;BME280;35839;48.662;13.300;2023-04-10T06:00:07;98167.44;;;4.90;100.00
49947;BME280;35839;48.662;13.300;2023-04-10T06:02:33;98161.91;;;5.09;100.00
49947;BME280;35839;48.662;13.300;2023-04-10T06:04:59;98168.63;;;5.25;100.00
49947;BME280;35839;48.662;13.300;2023-04-10T06:07:25;98171.78;;;4.75;100.00
49947;BME280;35839;48.662;13.300;2023-04-10T06:09:51;98169.47;;;5.26;100.00
49947;BME280;35839;48.662;13.300;2023-04-10T06:12:16;98174.44;;;5.43;100.00
49947;BME280;35839;48.662;13.300;2023-04-10T06:14:41;98167.09;;;5.63;100.00
49947;BME280;35839;48.662;13.300;2023-04-10T06:17:07;98170.88;;;5.84;100.00
49947;BME280;35839;48.662;13.300;2023-04-10T06:19:32;98172.53;;;6.00;100.00
49947;BME280;35839;48.662;13.300;2023-04-10T06:21:57;98171.16;;;6.20;100.00
49947;BME280;35839;48.662;13.300;2023-04-10T06:24:23;98171.28;;;6.18;100.00
49947;BME280;35839;48.662;13.300;2023-04-10T06:26:48;98160.47;;;6.24;100.00
49947;BME280;35839;48.662;13.300;2023-04-10T06:29:13;98172.31;;;6.28;100.00
49947;BME280;35839;48.662;13.300;2023-04-10T06:31:39;98165.56;;;6.51;100.00
49947;BME280;35839;48.662;13.300;2023-04-10T06:34:04;98157.03;;;6.62;100.00
49947;BME280;35839;48.662;13.300;2023-04-10T06:36:30;98157.03;;;6.62;100.00
49947;BME280;35839;48.662;13.300;2023-04-10T06:38:55;98160.81;;;6.82;100.00
49947;BME280;35839;48.662;13.300;2023-04-10T06:41:20;98160.81;;;6.82;100.00
49947;BME280;35839;48.662;13.300;2023-04-10T06:43:46;98161.31;;;7.00;100.00
49947;BME280;35839;48.662;13.300;2023-04-10T06:46:11;98160.81;;;6.95;100.00
49947;BME280;35839;48.662;13.300;2023-04-10T06:48:37;98158.72;;;7.00;100.00
49947;BME280;35839;48.662;13.300;2023-04-10T06:51:03;98154.50;;;7.10;100.00
49947;BME280;35839;48.662;13.300;2023-04-10T06:53:28;98141.06;;;7.16;100.00
49947;BME280;35839;48.662;13.300;2023-04-10T06:55:54;98149.97;;;7.49;100.00
49947;BME280;35839;48.662;13.300;2023-04-10T06:58:19;98151.25;;;7.44;100.00
49947;BME280;35839;48.662;13.300;2023-04-10T07:00:45;98147.94;;;7.42;100.00
49947;BME280;35839;48.662;13.300;2023-04-10T07:03:10;98137.66;;;7.51;100.00
49947;BME280;35839;48.662;13.300;2023-04-10T07:05:38;98140.31;;;7.63;100.00
49947;BME280;35839;48.662;13.300;2023-04-10T07:08:04;98136.16;;;7.60;100.00
49947;BME280;35839;48.662;13.300;2023-04-10T07:10:30;98131.06;;;7.58;100.00
49947;BME280;35839;48.662;13.300;2023-04-10T07:12:55;98133.22;;;7.76;100.00
49947;BME280;35839;48.662;13.300;2023-04-10T07:15:23;98139.47;;;7.97;100.00
49947;BME280;35839;48.662;13.300;2023-04-10T07:17:48;98139.78;;;7.81;100.00
49947;BME280;35839;48.662;13.300;2023-04-10T07:20:13;98139.84;;;7.69;100.00
49947;BME280;35839;48.662;13.300;2023-04-10T07:22:38;98137.75;;;7.74;100.00
49947;BME280;35839;48.662;13.300;2023-04-10T07:25:05;98145.19;;;8.02;100.00
49947;BME280;35839;48.662;13.300;2023-04-10T07:27:31;98143.78;;;8.21;100.00
49947;BME280;35839;48.662;13.300;2023-04-10T07:29:56;98146.16;;;8.24;100.00
49947;BME280;35839;48.662;13.300;2023-04-10T07:32:22;98145.22;;;8.36;100.00
49947;BME280;35839;48.662;13.300;2023-04-10T07:34:47;98142.41;;;8.51;100.00
49947;BME280;35839;48.662;13.300;2023-04-10T07:37:13;98150.25;;;8.62;100.00
49947;BME280;35839;48.662;13.300;2023-04-10T07:39:38;98138.50;;;8.68;100.00
49947;BME280;35839;48.662;13.300;2023-04-10T07:42:04;98133.75;;;8.73;100.00
49947;BME280;35839;48.662;13.300;2023-04-10T07:44:29;98132.41;;;8.90;100.00
49947;BME280;35839;48.662;13.300;2023-04-10T07:46:54;98132.28;;;9.02;100.00
49947;BME280;35839;48.662;13.300;2023-04-10T07:49:21;98123.84;;;8.99;100.00
49947;BME280;35839;48.662;13.300;2023-04-10T07:51:47;98133.69;;;9.06;100.00
49947;BME280;35839;48.662;13.300;2023-04-10T07:54:12;98124.53;;;9.12;100.00
49947;BME280;35839;48.662;13.300;2023-04-10T07:56:37;98125.19;;;8.93;100.00
49947;BME280;35839;48.662;13.300;2023-04-10T07:59:04;98130.19;;;9.28;100.00
49947;BME280;35839;48.662;13.300;2023-04-10T08:01:29;98123.09;;;9.19;100.00
49947;BME280;35839;48.662;13.300;2023-04-10T08:03:55;98124.75;;;9.20;100.00
49947;BME280;35839;48.662;13.300;2023-04-10T08:06:20;98126.09;;;9.47;100.00
49947;BME280;35839;48.662;13.300;2023-04-10T08:08:48;98122.16;;;9.53;100.00
49947;BME280;35839;48.662;13.300;2023-04-10T08:11:27;98123.13;;;9.73;100.00
49947;BME280;35839;48.662;13.300;2023-04-10T08:13:54;98114.53;;;9.82;100.00
49947;BME280;35839;48.662;13.300;2023-04-10T08:16:24;98111.63;;;9.43;100.00
49947;BME280;35839;48.662;13.300;2023-04-10T08:18:51;98117.25;;;10.01;100.00
49947;BME280;35839;48.662;13.300;2023-04-10T08:21:18;98119.25;;;10.30;100.00
49947;BME280;35839;48.662;13.300;2023-04-10T08:23:44;98118.06;;;10.23;100.00
49947;BME280;35839;48.662;13.300;2023-04-10T08:26:11;98114.09;;;10.49;100.00
49947;BME280;35839;48.662;13.300;2023-04-10T08:28:36;98115.78;;;10.60;100.00
49947;BME280;35839;48.662;13.300;2023-04-10T08:31:02;98119.19;;;10.51;100.00
49947;BME280;35839;48.662;13.300;2023-04-10T08:33:27;98110.34;;;10.73;100.00
49947;BME280;35839;48.662;13.300;2023-04-10T08:35:52;98114.34;;;10.77;100.00
49947;BME280;35839;48.662;13.300;2023-04-10T08:38:19;98123.94;;;11.07;100.00
49947;BME280;35839;48.662;13.300;2023-04-10T08:40:46;98124.50;;;11.21;100.00
49947;BME280;35839;48.662;13.300;2023-04-10T08:43:11;98121.25;;;10.88;100.00
49947;BME280;35839;48.662;13.300;2023-04-10T08:45:39;98118.72;;;11.36;100.00
49947;BME280;35839;48.662;13.300;2023-04-10T08:48:06;98115.41;;;11.34;100.00
49947;BME280;35839;48.662;13.300;2023-04-10T08:50:32;98114.59;;;11.24;100.00
49947;BME280;35839;48.662;13.300;2023-04-10T08:53:04;98110.31;;;11.52;100.00
49947;BME280;35839;48.662;13.300;2023-04-10T08:55:32;98101.34;;;11.55;100.00
49947;BME280;35839;48.662;13.300;2023-04-10T08:57:58;98108.25;;;11.75;100.00
49947;BME280;35839;48.662;13.300;2023-04-10T09:00:24;98103.97;;;11.94;100.00
49947;BME280;35839;48.662;13.300;2023-04-10T09:02:51;98109.34;;;11.92;100.00
49947;BME280;35839;48.662;13.300;2023-04-10T09:05:23;98110.16;;;11.34;100.00
49947;BME280;35839;48.662;13.300;2023-04-10T09:07:49;98107.66;;;12.11;100.00
49947;BME280;35839;48.662;13.300;2023-04-10T09:10:15;98106.72;;;11.92;100.00
49947;BME280;35839;48.662;13.300;2023-04-10T09:12:45;98102.16;;;11.94;100.00
49947;BME280;35839;48.662;13.300;2023-04-10T09:15:11;98098.13;;;12.00;96.95
49947;BME280;35839;48.662;13.300;2023-04-10T09:17:53;98096.34;;;12.10;100.00
49947;BME280;35839;48.662;13.300;2023-04-10T09:20:20;98093.78;;;12.28;97.98
49947;BME280;35839;48.662;13.300;2023-04-10T09:22:46;98093.53;;;12.21;100.00
49947;BME280;35839;48.662;13.300;2023-04-10T09:25:34;98099.44;;;12.23;100.00
49947;BME280;35839;48.662;13.300;2023-04-10T09:28:01;98107.00;;;12.74;86.73
49947;BME280;35839;48.662;13.300;2023-04-10T09:30:39;98099.16;;;13.19;93.01
49947;BME280;35839;48.662;13.300;2023-04-10T09:33:25;98109.56;;;13.57;89.51
49947;BME280;35839;48.662;13.300;2023-04-10T09:35:57;98095.88;;;13.71;89.13
49947;BME280;35839;48.662;13.300;2023-04-10T09:38:28;98098.50;;;13.53;86.13
49947;BME280;35839;48.662;13.300;2023-04-10T09:41:05;98103.00;;;12.70;87.83
49947;BME280;35839;48.662;13.300;2023-04-10T09:43:31;98099.13;;;12.74;88.03
49947;BME280;35839;48.662;13.300;2023-04-10T09:45:56;98094.13;;;13.62;86.86
49947;BME280;35839;48.662;13.300;2023-04-10T09:48:23;98101.66;;;13.57;80.69
49947;BME280;35839;48.662;13.300;2023-04-10T09:50:49;98088.69;;;13.81;78.25
49947;BME280;35839;48.662;13.300;2023-04-10T09:53:19;98083.75;;;13.42;87.09
49947;BME280;35839;48.662;13.300;2023-04-10T09:55:47;98088.16;;;13.24;81.73
49947;BME280;35839;48.662;13.300;2023-04-10T09:58:13;98079.16;;;12.81;83.80
49947;BME280;35839;48.662;13.300;2023-04-10T10:00:41;98085.31;;;12.72;83.69
49947;BME280;35839;48.662;13.300;2023-04-10T10:03:11;98078.22;;;12.44;85.75
49947;BME280;35839;48.662;13.300;2023-04-10T10:05:38;98075.59;;;12.54;87.75
49947;BME280;35839;48.662;13.300;2023-04-10T10:08:05;98070.13;;;13.11;88.76
49947;BME280;35839;48.662;13.300;2023-04-10T10:10:31;98069.50;;;13.89;82.32
49947;BME280;35839;48.662;13.300;2023-04-10T10:13:00;98062.94;;;14.19;82.84
49947;BME280;35839;48.662;13.300;2023-04-10T10:15:43;98056.94;;;14.69;62.90
49947;BME280;35839;48.662;13.300;2023-04-10T10:18:24;98059.56;;;14.69;60.77
49947;BME280;35839;48.662;13.300;2023-04-10T10:20:52;98054.06;;;14.97;57.25
49947;BME280;35839;48.662;13.300;2023-04-10T10:23:18;98054.06;;;14.97;56.40
49947;BME280;35839;48.662;13.300;2023-04-10T10:25:44;98051.94;;;15.17;54.18
49947;BME280;35839;48.662;13.300;2023-04-10T10:28:12;98045.88;;;15.25;56.23
49947;BME280;35839;48.662;13.300;2023-04-10T10:30:38;98047.00;;;15.30;59.65
49947;BME280;35839;48.662;13.300;2023-04-10T10:33:06;98032.25;;;14.87;57.95
49947;BME280;35839;48.662;13.300;2023-04-10T10:35:33;98034.97;;;15.11;55.50
49947;BME280;35839;48.662;13.300;2023-04-10T10:38:01;98019.16;;;15.44;56.18
49947;BME280;35839;48.662;13.300;2023-04-10T10:40:32;98034.94;;;14.95;59.18
49947;BME280;35839;48.662;13.300;2023-04-10T10:43:31;98026.75;;;15.55;58.79
49947;BME280;35839;48.662;13.300;2023-04-10T10:46:06;98014.84;;;15.51;58.90
49947;BME280;35839;48.662;13.300;2023-04-10T10:48:33;98020.78;;;15.62;56.48
49947;BME280;35839;48.662;13.300;2023-04-10T10:50:59;98016.78;;;15.98;55.99
49947;BME280;35839;48.662;13.300;2023-04-10T10:53:43;98009.06;;;15.56;54.79
49947;BME280;35839;48.662;13.300;2023-04-10T10:58:46;97996.97;;;16.11;55.24
49947;BME280;35839;48.662;13.300;2023-04-10T11:01:12;98012.22;;;15.27;56.43
49947;BME280;35839;48.662;13.300;2023-04-10T11:03:37;98009.34;;;16.10;54.55
49947;BME280;35839;48.662;13.300;2023-04-10T11:06:07;98002.19;;;16.27;51.12
49947;BME280;35839;48.662;13.300;2023-04-10T11:11:14;97991.91;;;16.72;52.17
49947;BME280;35839;48.662;13.300;2023-04-10T11:21:20;97988.81;;;15.24;50.50
49947;BME280;35839;48.662;13.300;2023-04-10T11:28:58;97970.50;;;16.58;46.77
49947;BME280;35839;48.662;13.300;2023-04-10T11:31:24;97974.50;;;16.77;46.02
49947;BME280;35839;48.662;13.300;2023-04-10T11:36:24;97967.44;;;17.01;44.25
49947;BME280;35839;48.662;13.300;2023-04-10T11:39:04;97954.34;;;17.22;43.10
49947;BME280;35839;48.662;13.300;2023-04-10T11:41:42;97965.28;;;16.02;40.88
49947;BME280;35839;48.662;13.300;2023-04-10T11:44:13;97961.63;;;16.43;48.36
49947;BME280;35839;48.662;13.300;2023-04-10T11:46:42;97958.19;;;17.20;45.87
49947;BME280;35839;48.662;13.300;2023-04-10T11:49:09;97962.63;;;16.73;44.58
49947;BME280;35839;48.662;13.300;2023-04-10T11:51:35;97959.31;;;17.25;46.24
49947;BME280;35839;48.662;13.300;2023-04-10T11:54:17;97958.94;;;17.28;44.47
49947;BME280;35839;48.662;13.300;2023-04-10T11:56:45;97956.78;;;15.51;45.14
49947;BME280;35839;48.662;13.300;2023-04-10T11:59:18;97951.53;;;15.35;47.43
49947;BME280;35839;48.662;13.300;2023-04-10T12:01:44;97952.84;;;15.72;48.66
49947;BME280;35839;48.662;13.300;2023-04-10T12:04:18;97942.59;;;15.52;48.21
49947;BME280;35839;48.662;13.300;2023-04-10T12:06:47;97923.63;;;15.57;48.47
49947;BME280;35839;48.662;13.300;2023-04-10T12:09:14;97918.47;;;16.19;49.24
49947;BME280;35839;48.662;13.300;2023-04-10T12:14:13;97926.13;;;15.50;50.08
49947;BME280;35839;48.662;13.300;2023-04-10T12:16:38;97915.84;;;15.64;49.81
49947;BME280;35839;48.662;13.300;2023-04-10T12:19:03;97922.13;;;15.71;49.88
49947;BME280;35839;48.662;13.300;2023-04-10T12:21:29;97915.81;;;15.88;49.77
49947;BME280;35839;48.662;13.300;2023-04-10T12:23:55;97913.06;;;15.73;49.29
49947;BME280;35839;48.662;13.300;2023-04-10T12:26:21;97911.56;;;16.18;51.20
49947;BME280;35839;48.662;13.300;2023-04-10T12:28:51;97902.13;;;16.78;48.55
49947;BME280;35839;48.662;13.300;2023-04-10T12:31:17;97900.00;;;16.74;48.16
49947;BME280;35839;48.662;13.300;2023-04-10T12:33:44;97897.97;;;16.84;47.97
49947;BME280;35839;48.662;13.300;2023-04-10T12:36:24;97888.81;;;16.95;46.28
49947;BME280;35839;48.662;13.300;2023-04-10T12:38:53;97886.41;;;16.77;49.18
49947;BME280;35839;48.662;13.300;2023-04-10T12:41:26;97884.31;;;17.48;44.68
49947;BME280;35839;48.662;13.300;2023-04-10T12:44:06;97873.28;;;17.44;43.91
49947;BME280;35839;48.662;13.300;2023-04-10T12:46:31;97861.59;;;17.68;46.09
49947;BME280;35839;48.662;13.300;2023-04-10T12:49:10;97863.13;;;18.07;40.63
49947;BME280;35839;48.662;13.300;2023-04-10T12:51:46;97867.72;;;18.35;40.46
49947;BME280;35839;48.662;13.300;2023-04-10T12:54:31;97869.41;;;18.79;40.46
49947;BME280;35839;48.662;13.300;2023-04-10T12:56:57;97865.13;;;18.05;39.70
49947;BME280;35839;48.662;13.300;2023-04-10T12:59:24;97866.31;;;17.28;44.11
49947;BME280;35839;48.662;13.300;2023-04-10T13:01:51;97861.25;;;17.86;42.70
49947;BME280;35839;48.662;13.300;2023-04-10T13:04:16;97856.34;;;18.41;42.96
49947;BME280;35839;48.662;13.300;2023-04-10T13:06:46;97855.03;;;18.95;42.19
49947;BME280;35839;48.662;13.300;2023-04-10T13:09:12;97857.97;;;18.79;40.37
49947;BME280;35839;48.662;13.300;2023-04-10T13:11:38;97856.06;;;18.51;39.50
49947;BME280;35839;48.662;13.300;2023-04-10T13:14:04;97853.34;;;17.34;40.59
49947;BME280;35839;48.662;13.300;2023-04-10T13:16:29;97848.28;;;16.94;40.61
49947;BME280;35839;48.662;13.300;2023-04-10T13:18:54;97858.16;;;16.77;41.64
49947;BME280;35839;48.662;13.300;2023-04-10T13:21:20;97841.47;;;17.00;42.18
49947;BME280;35839;48.662;13.300;2023-04-10T13:23:50;97835.53;;;16.98;41.65
49947;BME280;35839;48.662;13.300;2023-04-10T13:26:15;97827.25;;;17.90;38.34
49947;BME280;35839;48.662;13.300;2023-04-10T13:28:40;97826.13;;;17.99;37.15
49947;BME280;35839;48.662;13.300;2023-04-10T13:31:06;97822.75;;;18.48;38.41
49947;BME280;35839;48.662;13.300;2023-04-10T13:33:31;97819.72;;;18.94;35.48
49947;BME280;35839;48.662;13.300;2023-04-10T13:35:56;97823.22;;;17.64;35.40
49947;BME280;35839;48.662;13.300;2023-04-10T13:38:22;97808.44;;;17.70;35.93
49947;BME280;35839;48.662;13.300;2023-04-10T13:40:47;97817.34;;;18.57;37.89
49947;BME280;35839;48.662;13.300;2023-04-10T13:43:12;97807.38;;;18.37;38.34
49947;BME280;35839;48.662;13.300;2023-04-10T13:45:38;97803.28;;;18.35;36.72
49947;BME280;35839;48.662;13.300;2023-04-10T13:48:04;97809.59;;;19.05;35.63
49947;BME280;35839;48.662;13.300;2023-04-10T13:50:32;97799.56;;;19.28;37.07
49947;BME280;35839;48.662;13.300;2023-04-10T13:52:57;97798.72;;;18.28;37.52
49947;BME280;35839;48.662;13.300;2023-04-10T13:55:22;97793.09;;;18.17;35.13
49947;BME280;35839;48.662;13.300;2023-04-10T13:57:47;97796.53;;;18.53;37.03
49947;BME280;35839;48.662;13.300;2023-04-10T14:00:13;97788.72;;;17.73;36.74
49947;BME280;35839;48.662;13.300;2023-04-10T14:02:39;97789.03;;;17.99;35.46
49947;BME280;35839;48.662;13.300;2023-04-10T14:05:04;97786.00;;;18.67;34.79
49947;BME280;35839;48.662;13.300;2023-04-10T14:07:30;97792.97;;;18.25;33.59
49947;BME280;35839;48.662;13.300;2023-04-10T14:09:57;97787.81;;;18.17;33.77
49947;BME280;35839;48.662;13.300;2023-04-10T14:12:22;97787.06;;;18.94;34.34
49947;BME280;35839;48.662;13.300;2023-04-10T14:14:47;97775.91;;;19.40;32.39
49947;BME280;35839;48.662;13.300;2023-04-10T14:17:13;97776.56;;;19.97;35.07
49947;BME280;35839;48.662;13.300;2023-04-10T14:19:38;97773.16;;;20.30;32.10
49947;BME280;35839;48.662;13.300;2023-04-10T14:22:04;97772.81;;;20.59;31.78
49947;BME280;35839;48.662;13.300;2023-04-10T14:24:29;97765.66;;;20.60;32.03
49947;BME280;35839;48.662;13.300;2023-04-10T14:26:54;97762.25;;;21.44;31.25
49947;BME280;35839;48.662;13.300;2023-04-10T14:29:23;97761.94;;;20.54;31.89
49947;BME280;35839;48.662;13.300;2023-04-10T14:31:48;97764.16;;;20.44;32.46
49947;BME280;35839;48.662;13.300;2023-04-10T14:34:16;97753.72;;;21.02;32.84
49947;BME280;35839;48.662;13.300;2023-04-10T14:36:41;97750.84;;;21.11;31.29
49947;BME280;35839;48.662;13.300;2023-04-10T14:39:06;97771.44;;;19.89;33.01
49947;BME280;35839;48.662;13.300;2023-04-10T14:41:32;97758.19;;;21.35;31.91
49947;BME280;35839;48.662;13.300;2023-04-10T14:43:57;97765.97;;;21.30;30.53
49947;BME280;35839;48.662;13.300;2023-04-10T14:46:22;97760.63;;;21.88;29.92
49947;BME280;35839;48.662;13.300;2023-04-10T14:48:49;97762.34;;;20.45;31.87
49947;BME280;35839;48.662;13.300;2023-04-10T14:51:14;97755.19;;;20.85;30.24
49947;BME280;35839;48.662;13.300;2023-04-10T14:53:40;97749.81;;;20.05;31.42
49947;BME280;35839;48.662;13.300;2023-04-10T14:56:13;97745.59;;;20.71;31.06
49947;BME280;35839;48.662;13.300;2023-04-10T14:58:39;97746.81;;;19.19;32.95
49947;BME280;35839;48.662;13.300;2023-04-10T15:01:11;97750.56;;;19.72;32.46
49947;BME280;35839;48.662;13.300;2023-04-10T15:03:38;97741.84;;;20.05;31.24
49947;BME280;35839;48.662;13.300;2023-04-10T15:06:04;97728.81;;;20.63;29.75
49947;BME280;35839;48.662;13.300;2023-04-10T15:08:29;97734.06;;;21.75;30.01
49947;BME280;35839;48.662;13.300;2023-04-10T15:10:54;97727.84;;;21.36;29.20
49947;BME280;35839;48.662;13.300;2023-04-10T15:13:20;97712.13;;;21.21;28.66
49947;BME280;35839;48.662;13.300;2023-04-10T15:15:46;97709.53;;;21.60;28.93
49947;BME280;35839;48.662;13.300;2023-04-10T15:18:15;97703.69;;;22.65;27.11
49947;BME280;35839;48.662;13.300;2023-04-10T15:20:41;97701.31;;;21.68;27.17
49947;BME280;35839;48.662;13.300;2023-04-10T15:23:06;97693.59;;;20.35;28.92
49947;BME280;35839;48.662;13.300;2023-04-10T15:25:32;97696.06;;;20.16;29.18
49947;BME280;35839;48.662;13.300;2023-04-10T15:27:58;97686.66;;;20.60;28.14
49947;BME280;35839;48.662;13.300;2023-04-10T15:30:23;97682.56;;;21.81;27.98
49947;BME280;35839;48.662;13.300;2023-04-10T15:32:48;97685.56;;;21.01;28.72
49947;BME280;35839;48.662;13.300;2023-04-10T15:35:14;97684.94;;;20.99;28.33
49947;BME280;35839;48.662;13.300;2023-04-10T15:37:39;97681.78;;;21.74;27.53
49947;BME280;35839;48.662;13.300;2023-04-10T15:40:05;97676.44;;;22.38;26.34
49947;BME280;35839;48.662;13.300;2023-04-10T15:42:31;97678.03;;;23.26;26.82
49947;BME280;35839;48.662;13.300;2023-04-10T15:44:57;97674.88;;;22.73;26.53
49947;BME280;35839;48.662;13.300;2023-04-10T15:47:22;97675.88;;;21.14;27.60
49947;BME280;35839;48.662;13.300;2023-04-10T15:49:47;97677.22;;;21.81;26.89
49947;BME280;35839;48.662;13.300;2023-04-10T15:52:13;97673.44;;;21.19;27.87
49947;BME280;35839;48.662;13.300;2023-04-10T15:54:38;97673.53;;;20.46;28.64
49947;BME280;35839;48.662;13.300;2023-04-10T15:57:04;97657.50;;;22.14;27.68
49947;BME280;35839;48.662;13.300;2023-04-10T15:59:30;97659.97;;;22.16;27.44
49947;BME280;35839;48.662;13.300;2023-04-10T16:01:55;97658.13;;;21.53;27.90
49947;BME280;35839;48.662;13.300;2023-04-10T16:04:20;97655.22;;;21.93;27.66
49947;BME280;35839;48.662;13.300;2023-04-10T16:06:45;97656.59;;;22.02;27.15
49947;BME280;35839;48.662;13.300;2023-04-10T16:09:11;97649.59;;;22.33;26.48
49947;BME280;35839;48.662;13.300;2023-04-10T16:11:37;97647.50;;;23.03;26.27
49947;BME280;35839;48.662;13.300;2023-04-10T16:14:03;97648.59;;;21.25;27.35
49947;BME280;35839;48.662;13.300;2023-04-10T16:16:28;97643.53;;;21.62;27.94
49947;BME280;35839;48.662;13.300;2023-04-10T16:18:55;97646.19;;;21.17;28.30
49947;BME280;35839;48.662;13.300;2023-04-10T16:21:21;97637.19;;;21.04;28.55
49947;BME280;35839;48.662;13.300;2023-04-10T16:23:47;97638.75;;;20.60;29.77
49947;BME280;35839;48.662;13.300;2023-04-10T16:26:12;97635.31;;;20.33;29.59
49947;BME280;35839;48.662;13.300;2023-04-10T16:28:38;97636.63;;;19.43;29.97
49947;BME280;35839;48.662;13.300;2023-04-10T16:31:03;97637.31;;;18.40;32.37
49947;BME280;35839;48.662;13.300;2023-04-10T16:33:29;97627.63;;;17.98;33.52
49947;BME280;35839;48.662;13.300;2023-04-10T16:35:54;97627.41;;;18.21;33.00
49947;BME280;35839;48.662;13.300;2023-04-10T16:38:22;97636.22;;;18.06;33.17
49947;BME280;35839;48.662;13.300;2023-04-10T16:40:47;97627.72;;;18.67;33.12
49947;BME280;35839;48.662;13.300;2023-04-10T16:43:12;97611.50;;;19.52;32.17
49947;BME280;35839;48.662;13.300;2023-04-10T16:45:38;97610.84;;;19.30;32.15
49947;BME280;35839;48.662;13.300;2023-04-10T16:48:03;97612.97;;;19.61;32.00
49947;BME280;35839;48.662;13.300;2023-04-10T16:50:28;97613.41;;;20.45;30.90
49947;BME280;35839;48.662;13.300;2023-04-10T16:52:54;97604.38;;;20.52;30.39
49947;BME280;35839;48.662;13.300;2023-04-10T16:55:19;97610.16;;;20.16;30.59
49947;BME280;35839;48.662;13.300;2023-04-10T16:57:44;97619.94;;;19.01;32.23
49947;BME280;35839;48.662;13.300;2023-04-10T17:00:10;97614.84;;;18.36;32.85
49947;BME280;35839;48.662;13.300;2023-04-10T17:02:36;97612.31;;;16.99;35.70
49947;BME280;35839;48.662;13.300;2023-04-10T17:05:01;97614.13;;;16.69;36.22
49947;BME280;35839;48.662;13.300;2023-04-10T17:07:26;97615.56;;;15.66;38.31
49947;BME280;35839;48.662;13.300;2023-04-10T17:09:52;97599.03;;;15.49;38.73
49947;BME280;35839;48.662;13.300;2023-04-10T17:12:17;97603.31;;;14.95;40.54
49947;BME280;35839;48.662;13.300;2023-04-10T17:14:43;97605.03;;;14.80;40.85
49947;BME280;35839;48.662;13.300;2023-04-10T17:17:08;97602.47;;;14.47;42.11
49947;BME280;35839;48.662;13.300;2023-04-10T17:19:34;97599.88;;;14.31;41.69
49947;BME280;35839;48.662;13.300;2023-04-10T17:21:59;97601.38;;;14.33;41.85
49947;BME280;35839;48.662;13.300;2023-04-10T17:24:24;97596.13;;;14.09;41.35
49947;BME280;35839;48.662;13.300;2023-04-10T17:26:50;97594.81;;;14.05;42.66
49947;BME280;35839;48.662;13.300;2023-04-10T17:29:15;97592.69;;;14.00;42.53
49947;BME280;35839;48.662;13.300;2023-04-10T17:31:40;97594.16;;;13.29;44.53
49947;BME280;35839;48.662;13.300;2023-04-10T17:34:05;97591.47;;;13.13;45.08
49947;BME280;35839;48.662;13.300;2023-04-10T17:36:31;97586.84;;;12.98;45.44
49947;BME280;35839;48.662;13.300;2023-04-10T17:38:57;97587.50;;;13.08;45.23
49947;BME280;35839;48.662;13.300;2023-04-10T17:41:22;97586.88;;;13.15;45.79
49947;BME280;35839;48.662;13.300;2023-04-10T17:43:48;97586.50;;;13.01;45.43
49947;BME280;35839;48.662;13.300;2023-04-10T17:46:14;97584.19;;;12.90;45.26
49947;BME280;35839;48.662;13.300;2023-04-10T17:48:43;97584.03;;;13.00;45.64
49947;BME280;35839;48.662;13.300;2023-04-10T17:51:09;97577.03;;;12.66;45.78
49947;BME280;35839;48.662;13.300;2023-04-10T17:53:34;97577.63;;;12.52;46.83
49947;BME280;35839;48.662;13.300;2023-04-10T17:56:01;97585.53;;;12.26;47.97
49947;BME280;35839;48.662;13.300;2023-04-10T17:58:26;97584.94;;;12.40;47.50
49947;BME280;35839;48.662;13.300;2023-04-10T18:00:51;97580.66;;;12.31;46.24
49947;BME280;35839;48.662;13.300;2023-04-10T18:03:16;97588.34;;;12.32;47.82
49947;BME280;35839;48.662;13.300;2023-04-10T18:05:42;97586.78;;;12.13;48.67
49947;BME280;35839;48.662;13.300;2023-04-10T18:08:07;97581.34;;;11.89;49.65
49947;BME280;35839;48.662;13.300;2023-04-10T18:10:33;97580.69;;;11.87;51.78
49947;BME280;35839;48.662;13.300;2023-04-10T18:12:58;97577.56;;;11.29;54.87
49947;BME280;35839;48.662;13.300;2023-04-10T18:15:25;97574.78;;;11.13;59.15